sensor_id;sensor_type;location;lat;lon;timestamp;P1;durP1;ratioP1;P2;durP2;ratioP2
52031;SDS011;38044;45.148;39.604;2023-12-22T00:00:04;1.75;;;1.50;;
52031;SDS011;38044;45.148;39.604;2023-12-22T00:02:30;1.33;;;1.20;;
52031;SDS011;38044;45.148;39.604;2023-12-22T00:04:56;2.47;;;1.15;;
52031;SDS011;38044;45.148;39.604;2023-12-22T00:07:22;3.05;;;1.30;;
52031;SDS011;38044;45.148;39.604;2023-12-22T00:09:48;2.70;;;1.30;;
52031;SDS011;38044;45.148;39.604;2023-12-22T00:12:14;1.52;;;1.00;;
52031;SDS011;38044;45.148;39.604;2023-12-22T00:14:39;1.10;;;0.95;;
52031;SDS011;38044;45.148;39.604;2023-12-22T00:17:05;1.65;;;1.30;;
52031;SDS011;38044;45.148;39.604;2023-12-22T00:19:32;3.22;;;1.58;;
52031;SDS011;38044;45.148;39.604;2023-12-22T00:21:57;1.27;;;1.10;;
52031;SDS011;38044;45.148;39.604;2023-12-22T00:24:23;1.63;;;1.25;;
52031;SDS011;38044;45.148;39.604;2023-12-22T00:26:49;1.42;;;1.10;;
52031;SDS011;38044;45.148;39.604;2023-12-22T00:29:15;2.83;;;1.10;;
52031;SDS011;38044;45.148;39.604;2023-12-22T00:31:41;2.13;;;1.13;;
52031;SDS011;38044;45.148;39.604;2023-12-22T00:34:07;1.30;;;1.05;;
52031;SDS011;38044;45.148;39.604;2023-12-22T00:36:33;1.08;;;0.98;;
52031;SDS011;38044;45.148;39.604;2023-12-22T00:38:58;3.45;;;1.42;;
52031;SDS011;38044;45.148;39.604;2023-12-22T00:41:24;1.98;;;1.20;;
52031;SDS011;38044;45.148;39.604;2023-12-22T00:43:50;1.70;;;1.25;;
52031;SDS011;38044;45.148;39.604;2023-12-22T00:46:16;1.55;;;1.30;;
52031;SDS011;38044;45.148;39.604;2023-12-22T00:48:41;1.30;;;1.15;;
52031;SDS011;38044;45.148;39.604;2023-12-22T00:51:07;1.60;;;1.15;;
52031;SDS011;38044;45.148;39.604;2023-12-22T00:53:33;2.50;;;1.13;;
52031;SDS011;38044;45.148;39.604;2023-12-22T00:55:59;1.48;;;1.08;;
52031;SDS011;38044;45.148;39.604;2023-12-22T00:58:28;1.67;;;1.27;;
52031;SDS011;38044;45.148;39.604;2023-12-22T01:00:57;1.02;;;0.93;;
52031;SDS011;38044;45.148;39.604;2023-12-22T01:03:23;1.02;;;0.93;;
52031;SDS011;38044;45.148;39.604;2023-12-22T01:05:49;1.52;;;1.10;;
52031;SDS011;38044;45.148;39.604;2023-12-22T01:08:14;1.40;;;1.27;;
52031;SDS011;38044;45.148;39.604;2023-12-22T01:10:41;1.67;;;1.20;;
52031;SDS011;38044;45.148;39.604;2023-12-22T01:13:06;1.75;;;1.40;;
52031;SDS011;38044;45.148;39.604;2023-12-22T01:15:32;1.52;;;1.10;;
52031;SDS011;38044;45.148;39.604;2023-12-22T01:17:58;1.60;;;1.27;;
52031;SDS011;38044;45.148;39.604;2023-12-22T01:20:24;1.45;;;1.00;;
52031;SDS011;38044;45.148;39.604;2023-12-22T01:22:49;1.23;;;1.10;;
52031;SDS011;38044;45.148;39.604;2023-12-22T01:25:15;1.48;;;1.33;;
52031;SDS011;38044;45.148;39.604;2023-12-22T01:27:42;1.30;;;1.13;;
52031;SDS011;38044;45.148;39.604;2023-12-22T01:30:08;1.45;;;1.20;;
52031;SDS011;38044;45.148;39.604;2023-12-22T01:32:34;1.63;;;1.25;;
52031;SDS011;38044;45.148;39.604;2023-12-22T01:35:02;1.58;;;1.30;;
52031;SDS011;38044;45.148;39.604;2023-12-22T01:37:34;1.52;;;1.25;;
52031;SDS011;38044;45.148;39.604;2023-12-22T01:40:01;1.45;;;1.30;;
52031;SDS011;38044;45.148;39.604;2023-12-22T01:42:27;1.70;;;1.27;;
52031;SDS011;38044;45.148;39.604;2023-12-22T01:44:53;1.90;;;1.48;;
52031;SDS011;38044;45.148;39.604;2023-12-22T01:47:19;2.17;;;1.50;;
52031;SDS011;38044;45.148;39.604;2023-12-22T01:49:46;1.77;;;1.33;;
52031;SDS011;38044;45.148;39.604;2023-12-22T01:52:13;2.08;;;1.48;;
52031;SDS011;38044;45.148;39.604;2023-12-22T01:54:40;2.78;;;1.90;;
52031;SDS011;38044;45.148;39.604;2023-12-22T01:57:06;1.52;;;1.10;;
52031;SDS011;38044;45.148;39.604;2023-12-22T01:59:32;1.75;;;1.27;;
52031;SDS011;38044;45.148;39.604;2023-12-22T02:02:01;1.77;;;1.50;;
52031;SDS011;38044;45.148;39.604;2023-12-22T02:04:30;3.00;;;1.45;;
52031;SDS011;38044;45.148;39.604;2023-12-22T02:07:01;1.50;;;1.30;;
52031;SDS011;38044;45.148;39.604;2023-12-22T02:09:27;1.80;;;1.70;;
52031;SDS011;38044;45.148;39.604;2023-12-22T02:11:53;3.60;;;1.60;;
52031;SDS011;38044;45.148;39.604;2023-12-22T02:14:19;1.85;;;1.60;;
52031;SDS011;38044;45.148;39.604;2023-12-22T02:17:11;2.53;;;1.55;;
52031;SDS011;38044;45.148;39.604;2023-12-22T02:19:43;2.47;;;1.90;;
52031;SDS011;38044;45.148;39.604;2023-12-22T02:22:11;2.75;;;2.05;;
52031;SDS011;38044;45.148;39.604;2023-12-22T02:24:38;3.03;;;2.15;;
52031;SDS011;38044;45.148;39.604;2023-12-22T02:29:53;5.75;;;2.45;;
52031;SDS011;38044;45.148;39.604;2023-12-22T02:32:31;3.60;;;2.53;;
52031;SDS011;38044;45.148;39.604;2023-12-22T02:35:01;2.70;;;2.13;;
52031;SDS011;38044;45.148;39.604;2023-12-22T02:37:30;3.70;;;2.22;;
52031;SDS011;38044;45.148;39.604;2023-12-22T02:39:58;3.03;;;2.38;;
52031;SDS011;38044;45.148;39.604;2023-12-22T02:42:25;4.68;;;2.42;;
52031;SDS011;38044;45.148;39.604;2023-12-22T02:44:56;2.40;;;2.15;;
52031;SDS011;38044;45.148;39.604;2023-12-22T02:47:23;3.15;;;2.17;;
52031;SDS011;38044;45.148;39.604;2023-12-22T02:49:49;3.00;;;2.15;;
52031;SDS011;38044;45.148;39.604;2023-12-22T02:52:14;4.03;;;2.38;;
52031;SDS011;38044;45.148;39.604;2023-12-22T02:54:40;2.92;;;2.20;;
52031;SDS011;38044;45.148;39.604;2023-12-22T02:57:09;3.15;;;2.80;;
52031;SDS011;38044;45.148;39.604;2023-12-22T02:59:36;5.00;;;2.65;;
52031;SDS011;38044;45.148;39.604;2023-12-22T03:02:02;4.80;;;2.97;;
52031;SDS011;38044;45.148;39.604;2023-12-22T03:04:28;4.60;;;3.47;;
52031;SDS011;38044;45.148;39.604;2023-12-22T03:06:54;4.72;;;3.90;;
52031;SDS011;38044;45.148;39.604;2023-12-22T03:09:20;4.32;;;3.30;;
52031;SDS011;38044;45.148;39.604;2023-12-22T03:11:47;7.68;;;3.95;;
52031;SDS011;38044;45.148;39.604;2023-12-22T03:14:13;6.65;;;4.10;;
52031;SDS011;38044;45.148;39.604;2023-12-22T03:16:39;4.50;;;3.67;;
52031;SDS011;38044;45.148;39.604;2023-12-22T03:19:08;4.53;;;3.60;;
52031;SDS011;38044;45.148;39.604;2023-12-22T03:21:34;5.00;;;3.88;;
52031;SDS011;38044;45.148;39.604;2023-12-22T03:24:00;6.82;;;4.50;;
52031;SDS011;38044;45.148;39.604;2023-12-22T03:26:26;6.70;;;4.30;;
52031;SDS011;38044;45.148;39.604;2023-12-22T03:28:53;6.18;;;4.53;;
52031;SDS011;38044;45.148;39.604;2023-12-22T03:31:19;5.78;;;4.50;;
52031;SDS011;38044;45.148;39.604;2023-12-22T03:33:45;5.38;;;3.80;;
52031;SDS011;38044;45.148;39.604;2023-12-22T03:36:11;8.57;;;4.82;;
52031;SDS011;38044;45.148;39.604;2023-12-22T03:38:37;5.10;;;3.88;;
52031;SDS011;38044;45.148;39.604;2023-12-22T03:41:03;6.25;;;3.60;;
52031;SDS011;38044;45.148;39.604;2023-12-22T03:43:29;4.05;;;3.22;;
52031;SDS011;38044;45.148;39.604;2023-12-22T03:45:56;4.57;;;3.05;;
52031;SDS011;38044;45.148;39.604;2023-12-22T03:48:22;6.03;;;3.60;;
52031;SDS011;38044;45.148;39.604;2023-12-22T03:50:48;7.38;;;3.15;;
52031;SDS011;38044;45.148;39.604;2023-12-22T03:53:14;4.97;;;3.08;;
52031;SDS011;38044;45.148;39.604;2023-12-22T03:55:40;4.32;;;3.40;;
52031;SDS011;38044;45.148;39.604;2023-12-22T03:58:06;4.78;;;4.00;;
52031;SDS011;38044;45.148;39.604;2023-12-22T04:00:33;6.10;;;4.10;;
52031;SDS011;38044;45.148;39.604;2023-12-22T04:02:59;5.22;;;3.85;;
52031;SDS011;38044;45.148;39.604;2023-12-22T04:05:25;8.23;;;4.93;;
52031;SDS011;38044;45.148;39.604;2023-12-22T04:07:51;5.20;;;4.00;;
52031;SDS011;38044;45.148;39.604;2023-12-22T04:10:17;7.35;;;4.90;;
52031;SDS011;38044;45.148;39.604;2023-12-22T04:12:43;6.32;;;4.40;;
52031;SDS011;38044;45.148;39.604;2023-12-22T04:15:09;8.27;;;4.55;;
52031;SDS011;38044;45.148;39.604;2023-12-22T04:17:35;5.55;;;4.25;;
52031;SDS011;38044;45.148;39.604;2023-12-22T04:20:01;7.00;;;4.13;;
52031;SDS011;38044;45.148;39.604;2023-12-22T04:22:27;6.38;;;4.82;;
52031;SDS011;38044;45.148;39.604;2023-12-22T04:24:53;4.97;;;3.97;;
52031;SDS011;38044;45.148;39.604;2023-12-22T04:27:19;5.20;;;3.22;;
52031;SDS011;38044;45.148;39.604;2023-12-22T04:29:45;5.55;;;3.78;;
52031;SDS011;38044;45.148;39.604;2023-12-22T04:32:11;6.22;;;3.53;;
52031;SDS011;38044;45.148;39.604;2023-12-22T04:34:37;6.45;;;3.45;;
52031;SDS011;38044;45.148;39.604;2023-12-22T04:37:03;9.77;;;3.90;;
52031;SDS011;38044;45.148;39.604;2023-12-22T04:39:30;4.57;;;3.47;;
52031;SDS011;38044;45.148;39.604;2023-12-22T04:41:56;4.75;;;3.42;;
52031;SDS011;38044;45.148;39.604;2023-12-22T04:44:22;6.13;;;3.47;;
52031;SDS011;38044;45.148;39.604;2023-12-22T04:46:47;4.80;;;3.35;;
52031;SDS011;38044;45.148;39.604;2023-12-22T04:49:14;5.65;;;2.88;;
52031;SDS011;38044;45.148;39.604;2023-12-22T04:51:40;5.40;;;3.95;;
52031;SDS011;38044;45.148;39.604;2023-12-22T04:54:06;7.22;;;5.40;;
52031;SDS011;38044;45.148;39.604;2023-12-22T04:56:31;8.27;;;5.43;;
52031;SDS011;38044;45.148;39.604;2023-12-22T04:58:57;14.07;;;9.70;;
52031;SDS011;38044;45.148;39.604;2023-12-22T05:01:23;12.05;;;8.50;;
52031;SDS011;38044;45.148;39.604;2023-12-22T05:03:49;8.00;;;7.07;;
52031;SDS011;38044;45.148;39.604;2023-12-22T05:06:15;9.00;;;4.53;;
52031;SDS011;38044;45.148;39.604;2023-12-22T05:08:41;5.78;;;3.75;;
52031;SDS011;38044;45.148;39.604;2023-12-22T05:11:07;7.13;;;3.80;;
52031;SDS011;38044;45.148;39.604;2023-12-22T05:13:32;5.70;;;3.53;;
52031;SDS011;38044;45.148;39.604;2023-12-22T05:15:58;4.95;;;3.72;;
52031;SDS011;38044;45.148;39.604;2023-12-22T05:18:25;4.45;;;3.40;;
52031;SDS011;38044;45.148;39.604;2023-12-22T05:20:51;4.22;;;3.08;;
52031;SDS011;38044;45.148;39.604;2023-12-22T05:23:18;7.97;;;4.35;;
52031;SDS011;38044;45.148;39.604;2023-12-22T05:25:44;4.15;;;3.55;;
52031;SDS011;38044;45.148;39.604;2023-12-22T05:28:10;4.28;;;3.63;;
52031;SDS011;38044;45.148;39.604;2023-12-22T05:30:36;4.70;;;3.30;;
52031;SDS011;38044;45.148;39.604;2023-12-22T05:33:02;4.45;;;3.55;;
52031;SDS011;38044;45.148;39.604;2023-12-22T05:35:28;4.90;;;3.83;;
52031;SDS011;38044;45.148;39.604;2023-12-22T05:37:54;5.45;;;3.95;;
52031;SDS011;38044;45.148;39.604;2023-12-22T05:40:20;5.47;;;3.72;;
52031;SDS011;38044;45.148;39.604;2023-12-22T05:42:46;5.47;;;4.43;;
52031;SDS011;38044;45.148;39.604;2023-12-22T05:45:12;5.90;;;4.80;;
52031;SDS011;38044;45.148;39.604;2023-12-22T05:47:39;10.63;;;7.60;;
52031;SDS011;38044;45.148;39.604;2023-12-22T05:50:05;6.20;;;4.05;;
52031;SDS011;38044;45.148;39.604;2023-12-22T05:52:32;9.10;;;4.82;;
52031;SDS011;38044;45.148;39.604;2023-12-22T05:54:58;12.52;;;5.68;;
52031;SDS011;38044;45.148;39.604;2023-12-22T05:57:27;13.23;;;7.03;;
52031;SDS011;38044;45.148;39.604;2023-12-22T05:59:53;7.00;;;4.50;;
52031;SDS011;38044;45.148;39.604;2023-12-22T06:02:18;11.07;;;8.93;;
52031;SDS011;38044;45.148;39.604;2023-12-22T06:04:44;8.70;;;6.18;;
52031;SDS011;38044;45.148;39.604;2023-12-22T06:07:10;6.80;;;4.18;;
52031;SDS011;38044;45.148;39.604;2023-12-22T06:09:36;10.27;;;8.35;;
52031;SDS011;38044;45.148;39.604;2023-12-22T06:12:02;12.95;;;6.30;;
52031;SDS011;38044;45.148;39.604;2023-12-22T06:14:28;7.78;;;4.38;;
52031;SDS011;38044;45.148;39.604;2023-12-22T06:16:54;8.05;;;6.90;;
52031;SDS011;38044;45.148;39.604;2023-12-22T06:19:22;16.35;;;6.00;;
52031;SDS011;38044;45.148;39.604;2023-12-22T06:21:50;7.10;;;4.10;;
52031;SDS011;38044;45.148;39.604;2023-12-22T06:24:16;4.63;;;3.83;;
52031;SDS011;38044;45.148;39.604;2023-12-22T06:26:42;6.75;;;4.00;;
52031;SDS011;38044;45.148;39.604;2023-12-22T06:29:08;6.05;;;3.45;;
52031;SDS011;38044;45.148;39.604;2023-12-22T06:31:34;5.15;;;4.05;;
52031;SDS011;38044;45.148;39.604;2023-12-22T06:34:00;5.90;;;3.78;;
52031;SDS011;38044;45.148;39.604;2023-12-22T06:36:27;6.07;;;3.97;;
52031;SDS011;38044;45.148;39.604;2023-12-22T06:38:55;8.00;;;4.13;;
52031;SDS011;38044;45.148;39.604;2023-12-22T06:41:29;5.45;;;4.13;;
52031;SDS011;38044;45.148;39.604;2023-12-22T06:43:56;6.68;;;4.07;;
52031;SDS011;38044;45.148;39.604;2023-12-22T06:46:25;7.75;;;3.70;;
52031;SDS011;38044;45.148;39.604;2023-12-22T06:48:51;5.50;;;3.50;;
52031;SDS011;38044;45.148;39.604;2023-12-22T06:51:19;7.10;;;4.00;;
52031;SDS011;38044;45.148;39.604;2023-12-22T06:53:49;4.82;;;4.05;;
52031;SDS011;38044;45.148;39.604;2023-12-22T06:56:16;7.45;;;4.43;;
52031;SDS011;38044;45.148;39.604;2023-12-22T06:58:46;9.05;;;4.20;;
52031;SDS011;38044;45.148;39.604;2023-12-22T07:03:53;11.07;;;5.28;;
52031;SDS011;38044;45.148;39.604;2023-12-22T07:06:20;12.68;;;5.38;;
52031;SDS011;38044;45.148;39.604;2023-12-22T07:11:24;9.98;;;6.07;;
52031;SDS011;38044;45.148;39.604;2023-12-22T07:13:50;8.05;;;5.07;;
52031;SDS011;38044;45.148;39.604;2023-12-22T07:16:16;9.38;;;4.60;;
52031;SDS011;38044;45.148;39.604;2023-12-22T07:18:42;7.20;;;4.78;;
52031;SDS011;38044;45.148;39.604;2023-12-22T07:21:08;18.23;;;5.93;;
52031;SDS011;38044;45.148;39.604;2023-12-22T07:23:41;14.07;;;7.53;;
52031;SDS011;38044;45.148;39.604;2023-12-22T07:26:09;5.85;;;4.25;;
52031;SDS011;38044;45.148;39.604;2023-12-22T07:28:35;6.35;;;4.07;;
52031;SDS011;38044;45.148;39.604;2023-12-22T07:31:01;10.27;;;4.95;;
52031;SDS011;38044;45.148;39.604;2023-12-22T07:33:27;6.90;;;3.88;;
52031;SDS011;38044;45.148;39.604;2023-12-22T07:35:53;5.85;;;4.00;;
52031;SDS011;38044;45.148;39.604;2023-12-22T07:38:20;14.10;;;4.90;;
52031;SDS011;38044;45.148;39.604;2023-12-22T07:40:45;9.43;;;4.18;;
52031;SDS011;38044;45.148;39.604;2023-12-22T07:43:12;8.90;;;4.20;;
52031;SDS011;38044;45.148;39.604;2023-12-22T07:45:39;6.03;;;3.97;;
52031;SDS011;38044;45.148;39.604;2023-12-22T07:48:05;4.88;;;3.40;;
52031;SDS011;38044;45.148;39.604;2023-12-22T07:50:32;12.40;;;4.07;;
52031;SDS011;38044;45.148;39.604;2023-12-22T07:52:58;13.15;;;4.25;;
52031;SDS011;38044;45.148;39.604;2023-12-22T07:55:24;9.88;;;4.32;;
52031;SDS011;38044;45.148;39.604;2023-12-22T07:57:50;6.47;;;4.10;;
52031;SDS011;38044;45.148;39.604;2023-12-22T08:00:17;11.93;;;5.13;;
52031;SDS011;38044;45.148;39.604;2023-12-22T08:02:43;7.60;;;5.05;;
52031;SDS011;38044;45.148;39.604;2023-12-22T08:05:09;7.85;;;4.70;;
52031;SDS011;38044;45.148;39.604;2023-12-22T08:07:35;9.13;;;4.88;;
52031;SDS011;38044;45.148;39.604;2023-12-22T08:10:02;6.32;;;4.97;;
52031;SDS011;38044;45.148;39.604;2023-12-22T08:12:29;7.35;;;4.80;;
52031;SDS011;38044;45.148;39.604;2023-12-22T08:14:57;8.80;;;4.63;;
52031;SDS011;38044;45.148;39.604;2023-12-22T08:17:23;6.78;;;4.35;;
52031;SDS011;38044;45.148;39.604;2023-12-22T08:19:49;12.65;;;5.40;;
52031;SDS011;38044;45.148;39.604;2023-12-22T08:22:15;12.10;;;5.70;;
52031;SDS011;38044;45.148;39.604;2023-12-22T08:24:41;15.82;;;6.10;;
52031;SDS011;38044;45.148;39.604;2023-12-22T08:27:07;7.90;;;5.13;;
52031;SDS011;38044;45.148;39.604;2023-12-22T08:29:33;6.03;;;4.20;;
52031;SDS011;38044;45.148;39.604;2023-12-22T08:32:00;7.28;;;3.88;;
52031;SDS011;38044;45.148;39.604;2023-12-22T08:34:26;8.43;;;3.95;;
52031;SDS011;38044;45.148;39.604;2023-12-22T08:36:53;5.43;;;3.35;;
52031;SDS011;38044;45.148;39.604;2023-12-22T08:39:18;4.10;;;3.20;;
52031;SDS011;38044;45.148;39.604;2023-12-22T08:41:45;4.93;;;3.97;;
52031;SDS011;38044;45.148;39.604;2023-12-22T08:44:11;4.20;;;3.45;;
52031;SDS011;38044;45.148;39.604;2023-12-22T08:46:39;4.68;;;3.20;;
52031;SDS011;38044;45.148;39.604;2023-12-22T08:49:06;4.93;;;3.67;;
52031;SDS011;38044;45.148;39.604;2023-12-22T08:51:32;3.60;;;3.22;;
52031;SDS011;38044;45.148;39.604;2023-12-22T08:54:02;5.63;;;3.65;;
52031;SDS011;38044;45.148;39.604;2023-12-22T08:56:29;3.50;;;2.70;;
52031;SDS011;38044;45.148;39.604;2023-12-22T08:58:55;5.78;;;3.28;;
52031;SDS011;38044;45.148;39.604;2023-12-22T09:01:23;4.50;;;2.65;;
52031;SDS011;38044;45.148;39.604;2023-12-22T09:03:50;3.53;;;2.67;;
52031;SDS011;38044;45.148;39.604;2023-12-22T09:06:19;5.18;;;2.67;;
52031;SDS011;38044;45.148;39.604;2023-12-22T09:08:47;3.92;;;2.50;;
52031;SDS011;38044;45.148;39.604;2023-12-22T09:11:15;7.22;;;2.90;;
52031;SDS011;38044;45.148;39.604;2023-12-22T09:13:41;7.40;;;3.58;;
52031;SDS011;38044;45.148;39.604;2023-12-22T09:16:08;7.00;;;2.63;;
52031;SDS011;38044;45.148;39.604;2023-12-22T09:18:35;9.63;;;3.38;;
52031;SDS011;38044;45.148;39.604;2023-12-22T09:21:01;11.20;;;4.35;;
52031;SDS011;38044;45.148;39.604;2023-12-22T09:23:28;3.88;;;2.40;;
52031;SDS011;38044;45.148;39.604;2023-12-22T09:25:54;2.92;;;2.28;;
52031;SDS011;38044;45.148;39.604;2023-12-22T09:28:20;7.32;;;2.63;;
52031;SDS011;38044;45.148;39.604;2023-12-22T09:30:46;2.28;;;1.60;;
52031;SDS011;38044;45.148;39.604;2023-12-22T09:33:12;2.28;;;1.50;;
52031;SDS011;38044;45.148;39.604;2023-12-22T09:35:38;2.05;;;1.63;;
52031;SDS011;38044;45.148;39.604;2023-12-22T09:38:08;3.78;;;1.52;;
52031;SDS011;38044;45.148;39.604;2023-12-22T09:40:34;5.93;;;1.85;;
52031;SDS011;38044;45.148;39.604;2023-12-22T09:43:02;17.55;;;2.55;;
52031;SDS011;38044;45.148;39.604;2023-12-22T09:45:30;9.43;;;1.80;;
52031;SDS011;38044;45.148;39.604;2023-12-22T09:47:59;4.00;;;1.48;;
52031;SDS011;38044;45.148;39.604;2023-12-22T09:50:26;2.65;;;1.15;;
52031;SDS011;38044;45.148;39.604;2023-12-22T09:52:53;2.80;;;1.30;;
52031;SDS011;38044;45.148;39.604;2023-12-22T09:55:22;1.35;;;1.20;;
52031;SDS011;38044;45.148;39.604;2023-12-22T09:57:51;2.13;;;1.10;;
52031;SDS011;38044;45.148;39.604;2023-12-22T10:00:17;1.98;;;1.30;;
52031;SDS011;38044;45.148;39.604;2023-12-22T10:02:44;1.63;;;1.33;;
52031;SDS011;38044;45.148;39.604;2023-12-22T10:05:11;6.65;;;1.73;;
52031;SDS011;38044;45.148;39.604;2023-12-22T10:07:41;2.50;;;1.30;;
52031;SDS011;38044;45.148;39.604;2023-12-22T10:10:09;2.05;;;1.30;;
52031;SDS011;38044;45.148;39.604;2023-12-22T10:12:37;2.10;;;1.40;;
52031;SDS011;38044;45.148;39.604;2023-12-22T10:15:05;4.40;;;1.48;;
52031;SDS011;38044;45.148;39.604;2023-12-22T10:17:33;2.33;;;1.45;;
52031;SDS011;38044;45.148;39.604;2023-12-22T10:19:59;2.75;;;1.40;;
52031;SDS011;38044;45.148;39.604;2023-12-22T10:22:25;3.95;;;1.25;;
52031;SDS011;38044;45.148;39.604;2023-12-22T10:24:51;3.17;;;1.35;;
52031;SDS011;38044;45.148;39.604;2023-12-22T10:27:17;2.38;;;1.80;;
52031;SDS011;38044;45.148;39.604;2023-12-22T10:29:48;2.00;;;1.40;;
52031;SDS011;38044;45.148;39.604;2023-12-22T10:32:15;2.90;;;1.25;;
52031;SDS011;38044;45.148;39.604;2023-12-22T10:34:42;3.15;;;1.42;;
52031;SDS011;38044;45.148;39.604;2023-12-22T10:37:08;2.42;;;1.50;;
52031;SDS011;38044;45.148;39.604;2023-12-22T10:39:35;3.42;;;1.63;;
52031;SDS011;38044;45.148;39.604;2023-12-22T10:42:03;4.72;;;1.67;;
52031;SDS011;38044;45.148;39.604;2023-12-22T10:44:29;2.47;;;1.40;;
52031;SDS011;38044;45.148;39.604;2023-12-22T10:46:56;2.83;;;1.50;;
52031;SDS011;38044;45.148;39.604;2023-12-22T10:49:23;2.90;;;1.67;;
52031;SDS011;38044;45.148;39.604;2023-12-22T10:51:50;1.40;;;1.08;;
52031;SDS011;38044;45.148;39.604;2023-12-22T10:54:17;5.15;;;1.85;;
52031;SDS011;38044;45.148;39.604;2023-12-22T10:56:44;3.00;;;2.22;;
52031;SDS011;38044;45.148;39.604;2023-12-22T10:59:10;4.10;;;2.30;;
52031;SDS011;38044;45.148;39.604;2023-12-22T11:01:36;3.35;;;1.55;;
52031;SDS011;38044;45.148;39.604;2023-12-22T11:04:06;2.35;;;1.50;;
52031;SDS011;38044;45.148;39.604;2023-12-22T11:06:34;4.53;;;2.00;;
52031;SDS011;38044;45.148;39.604;2023-12-22T11:09:07;2.92;;;1.70;;
52031;SDS011;38044;45.148;39.604;2023-12-22T11:11:35;2.72;;;1.60;;
52031;SDS011;38044;45.148;39.604;2023-12-22T11:14:02;3.35;;;1.40;;
52031;SDS011;38044;45.148;39.604;2023-12-22T11:16:29;1.55;;;1.30;;
52031;SDS011;38044;45.148;39.604;2023-12-22T11:18:56;2.72;;;1.50;;
52031;SDS011;38044;45.148;39.604;2023-12-22T11:21:24;3.88;;;1.80;;
52031;SDS011;38044;45.148;39.604;2023-12-22T11:23:51;2.55;;;1.50;;
52031;SDS011;38044;45.148;39.604;2023-12-22T11:26:18;3.97;;;1.80;;
52031;SDS011;38044;45.148;39.604;2023-12-22T11:28:46;4.93;;;1.70;;
52031;SDS011;38044;45.148;39.604;2023-12-22T11:31:13;3.92;;;1.95;;
52031;SDS011;38044;45.148;39.604;2023-12-22T11:33:43;3.45;;;2.10;;
52031;SDS011;38044;45.148;39.604;2023-12-22T11:36:14;4.65;;;2.30;;
52031;SDS011;38044;45.148;39.604;2023-12-22T11:38:41;3.00;;;1.90;;
52031;SDS011;38044;45.148;39.604;2023-12-22T11:41:14;3.33;;;2.08;;
52031;SDS011;38044;45.148;39.604;2023-12-22T11:43:43;4.35;;;2.10;;
52031;SDS011;38044;45.148;39.604;2023-12-22T11:46:10;6.20;;;2.28;;
52031;SDS011;38044;45.148;39.604;2023-12-22T11:48:37;5.65;;;2.38;;
52031;SDS011;38044;45.148;39.604;2023-12-22T11:51:15;6.57;;;2.20;;
52031;SDS011;38044;45.148;39.604;2023-12-22T11:53:42;3.75;;;2.78;;
52031;SDS011;38044;45.148;39.604;2023-12-22T11:56:08;4.75;;;2.33;;
52031;SDS011;38044;45.148;39.604;2023-12-22T11:58:36;4.60;;;2.92;;
52031;SDS011;38044;45.148;39.604;2023-12-22T12:01:02;7.72;;;2.83;;
52031;SDS011;38044;45.148;39.604;2023-12-22T12:03:30;3.85;;;2.50;;
52031;SDS011;38044;45.148;39.604;2023-12-22T12:08:50;4.40;;;3.55;;
52031;SDS011;38044;45.148;39.604;2023-12-22T12:11:20;5.35;;;2.28;;
52031;SDS011;38044;45.148;39.604;2023-12-22T12:13:46;3.13;;;2.28;;
52031;SDS011;38044;45.148;39.604;2023-12-22T12:16:14;4.25;;;2.40;;
52031;SDS011;38044;45.148;39.604;2023-12-22T12:18:44;4.07;;;2.17;;
52031;SDS011;38044;45.148;39.604;2023-12-22T12:21:10;2.83;;;2.10;;
52031;SDS011;38044;45.148;39.604;2023-12-22T12:23:37;4.68;;;2.55;;
52031;SDS011;38044;45.148;39.604;2023-12-22T12:26:07;4.93;;;3.13;;
52031;SDS011;38044;45.148;39.604;2023-12-22T12:28:34;5.22;;;3.42;;
52031;SDS011;38044;45.148;39.604;2023-12-22T12:31:04;9.00;;;4.28;;
52031;SDS011;38044;45.148;39.604;2023-12-22T12:33:32;13.27;;;4.20;;
52031;SDS011;38044;45.148;39.604;2023-12-22T12:36:00;6.63;;;4.13;;
52031;SDS011;38044;45.148;39.604;2023-12-22T12:41:22;9.18;;;7.00;;
52031;SDS011;38044;45.148;39.604;2023-12-22T12:44:00;11.25;;;6.88;;
52031;SDS011;38044;45.148;39.604;2023-12-22T12:46:36;21.85;;;8.02;;
52031;SDS011;38044;45.148;39.604;2023-12-22T12:49:07;12.55;;;7.93;;
52031;SDS011;38044;45.148;39.604;2023-12-22T12:51:37;10.27;;;7.45;;
52031;SDS011;38044;45.148;39.604;2023-12-22T12:54:04;12.88;;;8.75;;
52031;SDS011;38044;45.148;39.604;2023-12-22T12:56:43;13.18;;;8.50;;
52031;SDS011;38044;45.148;39.604;2023-12-22T12:59:11;11.05;;;7.90;;
52031;SDS011;38044;45.148;39.604;2023-12-22T13:01:42;14.40;;;8.60;;
52031;SDS011;38044;45.148;39.604;2023-12-22T13:04:09;9.73;;;7.28;;
52031;SDS011;38044;45.148;39.604;2023-12-22T13:06:47;11.20;;;7.63;;
52031;SDS011;38044;45.148;39.604;2023-12-22T13:09:13;12.15;;;8.52;;
52031;SDS011;38044;45.148;39.604;2023-12-22T13:11:41;12.23;;;7.43;;
52031;SDS011;38044;45.148;39.604;2023-12-22T13:14:21;11.30;;;8.23;;
52031;SDS011;38044;45.148;39.604;2023-12-22T13:16:50;11.88;;;8.55;;
52031;SDS011;38044;45.148;39.604;2023-12-22T13:19:17;12.55;;;8.32;;
52031;SDS011;38044;45.148;39.604;2023-12-22T13:21:43;11.15;;;8.10;;
52031;SDS011;38044;45.148;39.604;2023-12-22T13:24:10;13.75;;;9.10;;
52031;SDS011;38044;45.148;39.604;2023-12-22T13:26:44;11.48;;;8.88;;
52031;SDS011;38044;45.148;39.604;2023-12-22T13:29:11;13.65;;;8.70;;
52031;SDS011;38044;45.148;39.604;2023-12-22T13:31:38;12.65;;;9.38;;
52031;SDS011;38044;45.148;39.604;2023-12-22T13:34:10;14.10;;;8.82;;
52031;SDS011;38044;45.148;39.604;2023-12-22T13:36:36;16.15;;;9.23;;
52031;SDS011;38044;45.148;39.604;2023-12-22T13:39:06;13.88;;;8.90;;
52031;SDS011;38044;45.148;39.604;2023-12-22T13:41:37;11.60;;;8.00;;
52031;SDS011;38044;45.148;39.604;2023-12-22T13:44:10;14.82;;;9.05;;
52031;SDS011;38044;45.148;39.604;2023-12-22T13:46:37;16.75;;;10.02;;
52031;SDS011;38044;45.148;39.604;2023-12-22T13:49:09;12.77;;;9.32;;
52031;SDS011;38044;45.148;39.604;2023-12-22T13:51:44;13.80;;;8.75;;
52031;SDS011;38044;45.148;39.604;2023-12-22T13:54:13;15.93;;;9.27;;
52031;SDS011;38044;45.148;39.604;2023-12-22T13:56:39;11.82;;;8.82;;
52031;SDS011;38044;45.148;39.604;2023-12-22T13:59:07;10.70;;;8.43;;
52031;SDS011;38044;45.148;39.604;2023-12-22T14:01:33;12.73;;;8.63;;
52031;SDS011;38044;45.148;39.604;2023-12-22T14:03:59;13.10;;;7.88;;
52031;SDS011;38044;45.148;39.604;2023-12-22T14:06:25;12.35;;;8.90;;
52031;SDS011;38044;45.148;39.604;2023-12-22T14:08:52;16.25;;;8.82;;
52031;SDS011;38044;45.148;39.604;2023-12-22T14:11:19;12.43;;;8.60;;
52031;SDS011;38044;45.148;39.604;2023-12-22T14:13:48;15.35;;;8.73;;
52031;SDS011;38044;45.148;39.604;2023-12-22T14:16:14;12.85;;;9.23;;
52031;SDS011;38044;45.148;39.604;2023-12-22T14:18:41;26.38;;;11.73;;
52031;SDS011;38044;45.148;39.604;2023-12-22T14:21:07;27.85;;;11.77;;
52031;SDS011;38044;45.148;39.604;2023-12-22T14:23:33;19.83;;;9.98;;
52031;SDS011;38044;45.148;39.604;2023-12-22T14:25:59;25.45;;;11.68;;
52031;SDS011;38044;45.148;39.604;2023-12-22T14:28:25;22.25;;;11.32;;
52031;SDS011;38044;45.148;39.604;2023-12-22T14:30:54;24.75;;;11.40;;
52031;SDS011;38044;45.148;39.604;2023-12-22T14:33:20;32.45;;;14.93;;
52031;SDS011;38044;45.148;39.604;2023-12-22T14:35:46;17.75;;;10.13;;
52031;SDS011;38044;45.148;39.604;2023-12-22T14:38:13;16.15;;;9.13;;
52031;SDS011;38044;45.148;39.604;2023-12-22T14:40:39;17.15;;;10.25;;
52031;SDS011;38044;45.148;39.604;2023-12-22T14:43:06;17.02;;;9.98;;